Time;durP1;ratioP1;P1;durP2;ratioP2;P2;SDS_P1;SDS_P2;PMS_P1;PMS_P2;Temp;Humidity;BMP_temperature;BMP_pressure;BME280_temperature;BME280_humidity;BME280_pressure;Samples;Min_cycle;Max_cycle;Signal;HPM_P1;HPM_P2
2022/10/18 05:00:29;;;;;;;5.50;3.10;;;17.70;97.20;;;;;;1668607;29;20627;-72
2022/10/18 05:01:20;;;;;;;6.28;3.65;;;17.70;97.20;;;;;;1668593;29;20199;-71
2022/10/18 05:02:11;;;;;;;4.70;4.20;;;17.70;97.20;;;;;;1668715;29;20206;-71
2022/10/18 05:03:02;;;;;;;9.70;4.10;;;17.70;97.20;;;;;;1668433;29;20240;-72
2022/10/18 05:03:54;;;;;;;4.70;3.50;;;17.70;97.20;;;;;;1668593;29;20214;-70
2022/10/18 05:04:45;;;;;;;5.18;3.20;;;17.70;97.20;;;;;;1668448;29;20207;-75
2022/10/18 05:05:37;;;;;;;3.13;2.83;;;17.70;97.20;;;;;;1668298;29;20214;-75
2022/10/18 05:06:28;;;;;;;5.28;3.67;;;17.70;97.20;;;;;;1668073;29;20213;-75
2022/10/18 05:07:19;;;;;;;4.87;3.47;;;17.70;97.20;;;;;;1663706;29;20199;-76
2022/10/18 05:08:10;;;;;;;4.13;3.58;;;17.70;97.20;;;;;;1662296;29;20214;-74
2022/10/18 05:09:02;;;;;;;4.70;3.63;;;17.70;97.20;;;;;;1662392;29;20211;-74
2022/10/18 05:09:53;;;;;;;5.32;3.53;;;17.70;97.20;;;;;;1662448;29;20211;-73
2022/10/18 05:10:45;;;;;;;4.67;3.33;;;17.70;97.20;;;;;;1665429;29;20692;-73
2022/10/18 05:11:35;;;;;;;5.60;3.72;;;17.70;97.20;;;;;;1668597;29;20218;-73
2022/10/18 05:12:27;;;;;;;8.00;3.60;;;17.70;97.20;;;;;;1668612;29;20206;-75
2022/10/18 05:13:18;;;;;;;6.78;4.25;;;17.70;97.20;;;;;;1668899;29;20218;-75
2022/10/18 05:14:09;;;;;;;4.70;3.40;;;17.70;97.20;;;;;;1668641;29;20206;-74
2022/10/18 05:15:00;;;;;;;3.90;3.60;;;17.70;97.20;;;;;;1668767;29;20673;-74
2022/10/18 05:15:53;;;;;;;4.00;3.63;;;17.70;97.20;;;;;;1668735;29;20609;-75
2022/10/18 05:16:44;;;;;;;4.43;3.60;;;17.70;97.20;;;;;;1667560;29;20226;-74
2022/10/18 05:17:36;;;;;;;6.00;3.43;;;17.70;97.20;;;;;;1668581;29;20202;-74
2022/10/18 05:18:27;;;;;;;8.73;3.88;;;17.60;97.20;;;;;;1671028;29;20203;-75
2022/10/18 05:19:19;;;;;;;5.23;3.63;;;17.70;97.20;;;;;;1675033;29;20296;-75
2022/10/18 05:20:09;;;;;;;4.85;3.58;;;17.70;97.20;;;;;;1668242;29;20206;-76
2022/10/18 05:21:01;;;;;;;5.00;3.60;;;17.70;97.20;;;;;;1668554;29;20233;-75
2022/10/18 05:21:52;;;;;;;6.60;3.53;;;17.70;97.20;;;;;;1668514;29;20957;-76
2022/10/18 05:22:44;;;;;;;9.20;4.17;;;17.70;97.20;;;;;;1668547;29;20571;-75
2022/10/18 05:23:34;;;;;;;6.28;3.75;;;17.70;97.20;;;;;;1668668;29;20677;-75
2022/10/18 05:24:26;;;;;;;3.33;3.03;;;17.70;97.20;;;;;;1668525;29;20590;-75
2022/10/18 05:25:17;;;;;;;5.72;3.47;;;17.70;97.20;;;;;;1668683;29;20210;-76
2022/10/18 05:26:09;;;;;;;5.27;3.30;;;17.70;97.20;;;;;;1668142;29;20199;-75
2022/10/18 05:27:00;;;;;;;4.68;3.53;;;17.70;97.20;;;;;;1668448;29;20214;-74
2022/10/18 05:27:51;;;;;;;5.37;3.60;;;17.70;97.20;;;;;;1668604;29;20684;-74
2022/10/18 05:28:42;;;;;;;3.40;3.10;;;17.80;97.20;;;;;;1668482;29;20325;-74
2022/10/18 05:29:34;;;;;;;5.33;3.40;;;17.80;97.20;;;;;;1668648;29;20206;-74
2022/10/18 05:30:25;;;;;;;4.40;3.67;;;17.80;97.20;;;;;;1666154;29;20207;-74
2022/10/18 05:31:18;;;;;;;4.10;3.60;;;17.80;97.20;;;;;;1673744;29;20241;-75
2022/10/18 05:32:09;;;;;;;5.65;3.17;;;17.80;97.20;;;;;;1687517;29;20212;-75
2022/10/18 05:33:01;;;;;;;7.93;3.73;;;17.80;97.20;;;;;;1687781;29;20215;-73
2022/10/18 05:33:52;;;;;;;7.32;3.38;;;17.80;97.20;;;;;;1687887;29;20208;-75
2022/10/18 05:34:43;;;;;;;8.10;4.07;;;17.90;97.20;;;;;;1687827;29;20200;-75
2022/10/18 05:35:34;;;;;;;7.78;3.58;;;17.90;97.20;;;;;;1687858;29;20204;-74
2022/10/18 05:36:26;;;;;;;6.40;3.80;;;17.90;97.20;;;;;;1687204;29;20208;-75
2022/10/18 05:37:17;;;;;;;4.00;3.53;;;17.90;97.20;;;;;;1687649;29;20448;-75
2022/10/18 05:38:09;;;;;;;6.65;3.30;;;17.90;97.20;;;;;;1687483;29;20204;-74
2022/10/18 05:39:02;;;;;;;9.30;3.83;;;17.90;97.20;;;;;;1687678;29;20212;-75
2022/10/18 05:39:54;;;;;;;3.63;3.33;;;17.90;97.20;;;;;;1687815;29;20197;-75
2022/10/18 05:40:44;;;;;;;8.55;3.75;;;17.90;97.20;;;;;;1687572;29;20243;-74
2022/10/18 05:41:36;;;;;;;7.93;3.90;;;17.90;97.20;;;;;;1687736;29;20279;-75
2022/10/18 05:42:27;;;;;;;5.50;2.90;;;17.90;97.20;;;;;;1687566;29;20239;-75
2022/10/18 05:43:19;;;;;;;6.23;3.73;;;17.90;97.20;;;;;;1687743;29;20204;-75
2022/10/18 05:44:09;;;;;;;3.42;3.10;;;17.90;97.20;;;;;;1687632;29;20534;-75
2022/10/18 05:45:01;;;;;;;8.00;3.60;;;17.90;97.20;;;;;;1687749;29;20212;-75
2022/10/18 05:45:52;;;;;;;7.65;3.35;;;17.90;97.20;;;;;;1687582;29;20212;-74
2022/10/18 05:46:45;;;;;;;4.33;3.40;;;17.90;97.20;;;;;;1686893;29;20204;-75
2022/10/18 05:47:35;;;;;;;5.68;4.22;;;17.90;97.20;;;;;;1687600;29;20204;-75
2022/10/18 05:48:27;;;;;;;10.00;3.67;;;17.90;97.20;;;;;;1687548;29;20212;-75
2022/10/18 05:49:18;;;;;;;5.35;3.20;;;18.00;97.20;;;;;;1687413;29;20208;-74
2022/10/18 05:50:10;;;;;;;6.60;3.53;;;17.90;97.20;;;;;;1687307;29;20196;-74
2022/10/18 05:51:01;;;;;;;4.80;3.25;;;17.90;97.20;;;;;;1687302;29;20472;-74
2022/10/18 05:51:52;;;;;;;5.83;3.67;;;18.00;97.20;;;;;;1687655;29;20209;-73
2022/10/18 05:52:43;;;;;;;4.57;3.20;;;18.00;97.20;;;;;;1687521;29;20224;-75
2022/10/18 05:53:35;;;;;;;7.30;3.70;;;17.90;97.20;;;;;;1687477;29;20196;-75
2022/10/18 05:54:25;;;;;;;9.48;3.53;;;17.90;97.20;;;;;;1687576;29;20216;-74
2022/10/18 05:55:17;;;;;;;4.27;3.87;;;17.90;97.20;;;;;;1687625;29;20283;-74
2022/10/18 05:56:10;;;;;;;5.05;3.35;;;17.90;97.20;;;;;;1687161;29;20211;-76
2022/10/18 05:57:02;;;;;;;3.95;3.50;;;17.90;97.20;;;;;;1687448;29;20214;-73
2022/10/18 05:57:53;;;;;;;7.05;3.60;;;17.90;97.20;;;;;;1687483;29;20209;-74
2022/10/18 05:58:44;;;;;;;5.87;3.73;;;17.90;97.20;;;;;;1687538;29;20283;-74
2022/10/18 05:59:35;;;;;;;4.05;3.20;;;17.90;97.20;;;;;;1687631;29;20227;-75
2022/10/18 06:00:27;;;;;;;4.00;3.30;;;17.90;97.20;;;;;;1687492;29;20234;-75
2022/10/18 06:01:18;;;;;;;6.75;3.50;;;17.90;97.20;;;;;;1687701;29;20981;-74
2022/10/18 06:02:11;;;;;;;4.95;3.80;;;17.90;97.20;;;;;;1687649;29;20634;-74
2022/10/18 06:03:02;;;;;;;4.65;3.50;;;17.90;97.20;;;;;;1687319;29;20209;-76
2022/10/18 06:03:54;;;;;;;5.53;4.27;;;17.90;97.20;;;;;;1687642;29;20204;-74
2022/10/18 06:04:45;;;;;;;6.57;3.75;;;17.90;97.20;;;;;;1687545;29;20448;-73
2022/10/18 06:05:37;;;;;;;6.00;3.50;;;17.90;97.20;;;;;;1687538;29;20215;-74
2022/10/18 06:06:27;;;;;;;3.70;3.40;;;17.90;97.20;;;;;;1686990;29;20649;-74
2022/10/18 06:07:19;;;;;;;3.97;3.63;;;17.90;97.20;;;;;;1687356;29;20204;-74
2022/10/18 06:08:10;;;;;;;7.20;3.45;;;17.90;97.20;;;;;;1687470;29;20605;-74
2022/10/18 06:09:02;;;;;;;6.57;3.53;;;17.80;97.20;;;;;;1687507;29;20600;-74
2022/10/18 06:09:53;;;;;;;4.82;3.70;;;17.80;97.20;;;;;;1687492;29;20302;-75
2022/10/18 06:10:44;;;;;;;5.30;3.77;;;17.80;97.20;;;;;;1687447;29;20225;-73
2022/10/18 06:11:36;;;;;;;3.70;3.40;;;17.80;97.20;;;;;;1687593;29;20208;-74
2022/10/18 06:12:27;;;;;;;4.85;3.20;;;17.80;97.20;;;;;;1687434;29;20323;-76
2022/10/18 06:13:18;;;;;;;6.40;3.88;;;17.80;97.20;;;;;;1686753;29;20204;-73
2022/10/18 06:14:10;;;;;;;10.33;4.90;;;17.80;97.20;;;;;;1691283;29;20242;-74
2022/10/18 06:15:01;;;;;;;6.38;4.22;;;17.80;97.20;;;;;;1692064;29;20558;-74
2022/10/18 06:15:56;;;;;;;5.60;4.20;;;17.80;97.20;;;;;;1691987;29;20576;-76
2022/10/18 06:16:46;;;;;;;12.23;5.55;;;17.80;97.20;;;;;;1689048;29;20209;-75
2022/10/18 06:17:39;;;;;;;6.43;5.83;;;17.80;97.20;;;;;;1690134;29;20242;-74
2022/10/18 06:18:30;;;;;;;7.90;4.57;;;17.80;97.20;;;;;;1693872;29;20207;-73
2022/10/18 06:19:22;;;;;;;8.37;4.90;;;17.80;97.20;;;;;;1693826;29;20206;-74
2022/10/18 06:20:13;;;;;;;6.85;4.80;;;17.80;97.20;;;;;;1693181;29;20222;-73
2022/10/18 06:21:05;;;;;;;3.87;3.57;;;17.90;97.20;;;;;;1693200;29;20692;-74
2022/10/18 06:21:56;;;;;;;5.93;4.82;;;17.90;97.20;;;;;;1693257;29;20455;-73
2022/10/18 06:22:48;;;;;;;6.07;5.20;;;17.90;97.20;;;;;;1693230;29;20202;-74
2022/10/18 06:23:39;;;;;;;6.13;4.72;;;17.90;97.20;;;;;;1687205;29;20212;-74
2022/10/18 06:24:31;;;;;;;6.25;4.20;;;17.90;97.20;;;;;;1687328;29;20209;-73
2022/10/18 06:25:22;;;;;;;4.32;3.78;;;17.90;97.20;;;;;;1687399;29;20209;-74
2022/10/18 06:26:13;;;;;;;5.80;4.43;;;17.90;97.20;;;;;;1687041;29;20419;-74
2022/10/18 06:27:07;;;;;;;5.25;4.75;;;17.90;97.20;;;;;;1687113;29;20217;-74
2022/10/18 06:27:59;;;;;;;5.07;4.50;;;17.90;97.20;;;;;;1687162;29;20216;-73
2022/10/18 06:28:50;;;;;;;6.95;4.38;;;18.00;97.20;;;;;;1687360;29;20558;-73
2022/10/18 06:29:42;;;;;;;8.97;4.83;;;18.00;97.20;;;;;;1687507;29;20204;-74
2022/10/18 06:30:34;;;;;;;6.88;4.05;;;18.00;97.20;;;;;;1690541;29;20552;-74
2022/10/18 06:31:25;;;;;;;6.80;4.55;;;18.00;97.20;;;;;;1700246;29;20593;-74
2022/10/18 06:32:17;;;;;;;7.22;4.50;;;18.00;97.20;;;;;;1698644;29;20206;-73
2022/10/18 06:33:10;;;;;;;4.82;4.35;;;18.00;97.20;;;;;;1693669;29;20211;-74
2022/10/18 06:34:01;;;;;;;7.75;3.65;;;18.10;97.20;;;;;;1699735;29;20755;-75
2022/10/18 06:34:53;;;;;;;6.33;4.07;;;18.00;97.20;;;;;;1698639;29;20613;-74
2022/10/18 06:35:53;;;;;;;4.38;3.97;;;18.10;97.20;;;;;;1696417;29;20200;-74
2022/10/18 06:36:45;;;;;;;4.15;3.70;;;18.10;97.20;;;;;;1692948;29;20203;-74
2022/10/18 06:37:36;;;;;;;7.00;4.00;;;18.10;97.20;;;;;;1693741;29;20801;-75
2022/10/18 06:38:29;;;;;;;4.63;3.72;;;18.10;97.20;;;;;;1693740;29;20207;-75
2022/10/18 06:39:20;;;;;;;6.72;4.13;;;18.20;97.20;;;;;;1693810;29;20207;-75
2022/10/18 06:40:12;;;;;;;3.90;3.53;;;18.20;97.20;;;;;;1693810;29;20292;-74
2022/10/18 06:41:04;;;;;;;5.97;3.60;;;18.20;97.20;;;;;;1693856;29;20588;-74
2022/10/18 06:41:56;;;;;;;4.68;3.90;;;18.20;97.20;;;;;;1698580;29;20242;-74
2022/10/18 06:42:47;;;;;;;6.85;4.28;;;18.20;97.20;;;;;;1700213;29;20204;-74
2022/10/18 06:43:38;;;;;;;4.60;4.05;;;18.30;97.20;;;;;;1700482;29;20211;-75
2022/10/18 06:44:30;;;;;;;4.55;4.05;;;18.30;97.20;;;;;;1701762;29;20210;-74
2022/10/18 06:45:22;;;;;;;4.00;3.58;;;18.30;97.20;;;;;;1701704;29;20620;-74
2022/10/18 06:46:12;;;;;;;4.57;3.50;;;18.30;97.20;;;;;;1701089;29;20665;-74
2022/10/18 06:47:05;;;;;;;6.83;3.77;;;18.30;97.20;;;;;;1701399;29;20564;-74
2022/10/18 06:47:57;;;;;;;7.53;3.88;;;18.30;97.20;;;;;;1701458;29;20251;-74
2022/10/18 06:48:50;;;;;;;4.57;4.00;;;18.30;97.20;;;;;;1701451;29;20258;-75
2022/10/18 06:49:41;;;;;;;5.53;3.50;;;18.40;97.20;;;;;;1701593;29;20203;-74
2022/10/18 06:50:32;;;;;;;4.23;3.73;;;18.30;97.20;;;;;;1701564;29;20305;-74
2022/10/18 06:51:23;;;;;;;5.70;4.07;;;18.30;97.20;;;;;;1700464;29;20222;-75
2022/10/18 06:52:17;;;;;;;4.20;3.27;;;18.30;97.20;;;;;;1695063;29;20204;-75
2022/10/18 06:53:08;;;;;;;4.57;3.88;;;18.30;97.20;;;;;;1695028;29;20216;-73
2022/10/18 06:54:00;;;;;;;7.03;3.20;;;18.30;97.20;;;;;;1695112;29;20211;-74
2022/10/18 06:54:51;;;;;;;4.70;3.20;;;18.30;97.20;;;;;;1695110;29;20243;-73
2022/10/18 06:55:43;;;;;;;5.15;4.10;;;18.40;97.20;;;;;;1695106;29;20224;-74
2022/10/18 06:56:34;;;;;;;3.90;3.50;;;18.40;97.20;;;;;;1693915;29;20208;-73
2022/10/18 06:57:26;;;;;;;6.65;3.90;;;18.40;97.20;;;;;;1694177;29;20581;-73
2022/10/18 06:58:17;;;;;;;4.95;3.63;;;18.40;97.20;;;;;;1694375;29;20210;-74
2022/10/18 06:59:09;;;;;;;5.50;3.30;;;18.40;97.20;;;;;;1694435;29;20617;-74
2022/10/18 06:59:59;;;;;;;5.45;3.72;;;18.40;97.20;;;;;;1694429;29;20215;-73
2022/10/18 07:00:51;;;;;;;6.37;3.93;;;18.40;97.20;;;;;;1700291;29;20211;-74
2022/10/18 07:01:42;;;;;;;4.18;3.75;;;18.40;97.20;;;;;;1701615;29;20215;-73
2022/10/18 07:02:34;;;;;;;6.15;3.60;;;18.40;97.20;;;;;;1701650;29;20195;-75
2022/10/18 07:03:25;;;;;;;5.10;3.53;;;18.40;97.20;;;;;;1701029;29;20211;-73
2022/10/18 07:04:18;;;;;;;4.40;3.97;;;18.40;97.20;;;;;;1701678;29;20282;-73
2022/10/18 07:05:10;;;;;;;9.00;3.78;;;18.50;97.20;;;;;;1701571;29;20214;-73
2022/10/18 07:06:02;;;;;;;6.82;3.72;;;18.50;97.20;;;;;;1701692;29;20209;-73
2022/10/18 07:06:53;;;;;;;4.38;4.00;;;18.50;97.20;;;;;;1700284;29;20645;-73
2022/10/18 07:07:45;;;;;;;8.77;4.93;;;18.50;97.20;;;;;;1700822;29;20732;-72
2022/10/18 07:08:36;;;;;;;4.82;3.38;;;18.50;97.20;;;;;;1701069;29;20207;-74
2022/10/18 07:09:28;;;;;;;6.47;4.22;;;18.50;97.20;;;;;;1700775;29;20230;-73
2022/10/18 07:10:18;;;;;;;4.07;3.58;;;18.50;97.20;;;;;;1698836;29;20214;-74
2022/10/18 07:11:15;;;;;;;9.33;3.37;;;18.50;97.20;;;;;;1694481;29;20215;-73
2022/10/18 07:12:07;;;;;;;6.28;3.70;;;18.50;97.20;;;;;;1694294;29;20234;-74
2022/10/18 07:12:58;;;;;;;4.55;4.00;;;18.50;97.20;;;;;;1694430;29;20208;-74
2022/10/18 07:13:49;;;;;;;4.63;3.40;;;18.50;97.20;;;;;;1694307;29;20208;-74
2022/10/18 07:14:40;;;;;;;7.15;4.05;;;18.50;97.20;;;;;;1694204;29;20212;-74
2022/10/18 07:15:32;;;;;;;3.07;2.87;;;18.50;97.20;;;;;;1693870;29;20196;-74
2022/10/18 07:16:23;;;;;;;5.88;3.70;;;18.50;97.20;;;;;;1693836;29;20292;-73
2022/10/18 07:17:15;;;;;;;7.73;3.83;;;18.50;97.20;;;;;;1694182;29;20509;-74
2022/10/18 07:18:06;;;;;;;6.65;4.05;;;18.50;97.20;;;;;;1694282;29;20212;-74
2022/10/18 07:18:57;;;;;;;6.97;3.70;;;18.50;97.20;;;;;;1694328;29;20757;-73
2022/10/18 07:19:49;;;;;;;3.72;3.42;;;18.50;97.20;;;;;;1694102;29;20682;-74
2022/10/18 07:20:41;;;;;;;4.70;3.85;;;18.50;97.20;;;;;;1697977;29;20281;-73
2022/10/18 07:21:33;;;;;;;8.57;3.72;;;18.50;97.20;;;;;;1700850;29;20210;-73
2022/10/18 07:22:23;;;;;;;4.97;3.35;;;18.50;97.20;;;;;;1701451;29;20226;-73
2022/10/18 07:23:15;;;;;;;4.77;3.60;;;18.50;97.20;;;;;;1701549;29;20411;-73
2022/10/18 07:24:06;;;;;;;3.95;3.30;;;18.50;97.20;;;;;;1701405;29;20215;-73
2022/10/18 07:24:58;;;;;;;6.37;3.73;;;18.50;97.20;;;;;;1701594;29;20209;-74
2022/10/18 07:25:49;;;;;;;8.07;3.70;;;18.50;97.20;;;;;;1701447;29;20203;-72
2022/10/18 07:26:41;;;;;;;6.27;3.80;;;18.50;97.20;;;;;;1700755;29;20199;-74
2022/10/18 07:27:35;;;;;;;5.75;4.20;;;18.50;97.20;;;;;;1701339;29;20455;-74
2022/10/18 07:28:27;;;;;;;5.60;3.40;;;18.50;97.20;;;;;;1701496;29;20624;-73
2022/10/18 07:29:18;;;;;;;4.10;3.70;;;18.50;97.20;;;;;;1701450;29;20222;-72
2022/10/18 07:30:11;;;;;;;3.77;3.47;;;18.50;97.20;;;;;;1701184;29;20207;-74
2022/10/18 07:31:03;;;;;;;3.78;3.20;;;18.50;97.20;;;;;;1705709;29;20218;-74
2022/10/18 07:31:55;;;;;;;6.63;3.55;;;18.50;97.20;;;;;;1708284;29;20313;-72
2022/10/18 07:32:46;;;;;;;7.68;3.95;;;18.50;97.20;;;;;;1708331;29;20687;-72
2022/10/18 07:33:38;;;;;;;3.87;3.50;;;18.50;97.20;;;;;;1708171;29;20650;-73
2022/10/18 07:34:29;;;;;;;6.47;3.95;;;18.50;97.20;;;;;;1708033;29;20210;-74
2022/10/18 07:35:22;;;;;;;3.72;3.42;;;18.50;97.20;;;;;;1708039;29;20198;-72
2022/10/18 07:36:13;;;;;;;5.60;3.50;;;18.50;97.20;;;;;;1707452;29;20210;-74
2022/10/18 07:37:05;;;;;;;5.60;3.23;;;18.50;97.20;;;;;;1707717;29;20198;-73
2022/10/18 07:37:56;;;;;;;5.20;3.30;;;18.50;97.20;;;;;;1708041;29;20696;-73
2022/10/18 07:38:47;;;;;;;6.20;3.50;;;18.60;97.20;;;;;;1708021;29;20683;-73
2022/10/18 07:39:38;;;;;;;5.53;3.38;;;18.60;97.20;;;;;;1708076;29;20206;-74
2022/10/18 07:40:30;;;;;;;4.30;3.50;;;18.60;97.20;;;;;;1707654;29;20203;-74
2022/10/18 07:41:21;;;;;;;4.45;4.05;;;18.60;97.20;;;;;;1708001;29;20261;-73
2022/10/18 07:42:13;;;;;;;5.22;3.78;;;18.60;97.20;;;;;;1707985;29;20206;-73
2022/10/18 07:43:04;;;;;;;3.45;3.13;;;18.60;97.20;;;;;;1707947;29;20699;-73
2022/10/18 07:43:56;;;;;;;5.10;3.57;;;18.60;97.20;;;;;;1708111;29;20687;-74
2022/10/18 07:44:46;;;;;;;5.20;3.58;;;18.60;97.20;;;;;;1707969;29;20203;-73
2022/10/18 07:45:38;;;;;;;4.73;3.30;;;18.60;97.20;;;;;;1708081;29;20210;-73
2022/10/18 07:46:29;;;;;;;6.85;3.15;;;18.60;97.20;;;;;;1707422;29;20206;-73
2022/10/18 07:47:20;;;;;;;5.27;3.70;;;18.60;97.20;;;;;;1707826;29;20210;-73
2022/10/18 07:48:11;;;;;;;4.60;3.50;;;18.60;97.20;;;;;;1707824;29;20213;-73
2022/10/18 07:49:03;;;;;;;4.40;4.00;;;18.60;97.20;;;;;;1708052;29;20213;-73
2022/10/18 07:49:54;;;;;;;4.47;3.75;;;18.60;97.20;;;;;;1707772;29;20234;-73
2022/10/18 07:50:47;;;;;;;3.80;3.50;;;18.60;97.20;;;;;;1707535;29;20214;-73
2022/10/18 07:51:39;;;;;;;4.30;3.53;;;18.70;97.20;;;;;;1708024;29;20206;-73
2022/10/18 07:52:29;;;;;;;6.68;3.47;;;18.60;97.20;;;;;;1707892;29;20198;-75
2022/10/18 07:53:21;;;;;;;5.03;4.00;;;18.70;97.20;;;;;;1707988;29;20209;-73
2022/10/18 07:54:13;;;;;;;4.18;3.28;;;18.70;97.20;;;;;;1707959;29;20564;-74
2022/10/18 07:55:04;;;;;;;7.45;3.50;;;18.70;97.20;;;;;;1707936;28;20214;-74
2022/10/18 07:55:58;;;;;;;6.35;3.70;;;18.70;97.20;;;;;;1707972;29;20693;-73
2022/10/18 07:56:49;;;;;;;4.88;3.97;;;18.70;97.20;;;;;;1707158;29;20556;-73
2022/10/18 07:57:40;;;;;;;5.87;3.77;;;18.70;97.20;;;;;;1707882;29;20894;-73
2022/10/18 07:58:32;;;;;;;4.43;3.40;;;18.70;97.20;;;;;;1707894;29;20206;-73
2022/10/18 07:59:24;;;;;;;6.72;4.20;;;18.70;97.20;;;;;;1707942;29;20281;-73
2022/10/18 08:00:15;;;;;;;7.53;4.00;;;18.70;97.20;;;;;;1707781;29;20222;-73
2022/10/18 08:01:08;;;;;;;6.20;3.70;;;18.70;97.20;;;;;;1707544;29;20205;-73
2022/10/18 08:01:59;;;;;;;11.32;3.90;;;18.80;97.20;;;;;;1707903;29;20203;-74
2022/10/18 08:02:55;;;;;;;4.15;3.75;;;18.80;97.20;;;;;;1707673;29;20211;-74
2022/10/18 08:03:47;;;;;;;6.90;3.88;;;18.80;97.20;;;;;;1707877;29;20615;-73
2022/10/18 08:04:37;;;;;;;3.25;2.95;;;18.80;97.20;;;;;;1707865;29;20262;-73
2022/10/18 08:05:29;;;;;;;5.03;4.33;;;18.80;97.20;;;;;;1707838;29;20210;-73
2022/10/18 08:06:22;;;;;;;9.20;3.85;;;18.80;97.20;;;;;;1707360;29;20210;-74
2022/10/18 08:07:14;;;;;;;4.90;3.67;;;18.80;97.20;;;;;;1707670;29;20206;-74
2022/10/18 08:08:05;;;;;;;4.25;3.47;;;18.80;97.20;;;;;;1707727;29;20221;-73
2022/10/18 08:08:56;;;;;;;7.77;4.10;;;18.80;97.20;;;;;;1707881;29;20691;-73
2022/10/18 08:09:47;;;;;;;4.40;3.60;;;18.80;97.20;;;;;;1707713;29;20226;-73
2022/10/18 08:10:39;;;;;;;5.40;3.67;;;18.80;97.20;;;;;;1707559;29;20230;-73
2022/10/18 08:11:30;;;;;;;6.50;4.25;;;18.80;97.20;;;;;;1707812;29;20210;-73
2022/10/18 08:12:22;;;;;;;5.60;3.97;;;18.80;97.20;;;;;;1707930;29;20210;-73
2022/10/18 08:13:14;;;;;;;7.38;4.25;;;18.80;97.20;;;;;;1707816;29;20455;-73
2022/10/18 08:14:05;;;;;;;3.50;3.30;;;18.90;97.20;;;;;;1707886;29;20677;-73
2022/10/18 08:14:56;;;;;;;7.05;4.95;;;18.90;97.20;;;;;;1707918;28;20194;-72
2022/10/18 08:15:48;;;;;;;5.67;3.63;;;18.90;97.20;;;;;;1707772;29;20207;-73
2022/10/18 08:16:39;;;;;;;5.97;3.92;;;18.90;97.20;;;;;;1707052;29;20198;-73
2022/10/18 08:17:30;;;;;;;4.20;3.80;;;18.90;97.20;;;;;;1707768;29;20199;-74
2022/10/18 08:18:21;;;;;;;5.05;3.80;;;18.90;97.20;;;;;;1707815;29;20206;-74
2022/10/18 08:19:13;;;;;;;5.77;4.20;;;18.90;97.20;;;;;;1707730;29;20201;-73
2022/10/18 08:20:04;;;;;;;5.22;3.85;;;18.90;97.20;;;;;;1707913;29;20198;-73
2022/10/18 08:20:56;;;;;;;9.25;4.35;;;18.90;97.20;;;;;;1707454;29;20305;-73
2022/10/18 08:21:48;;;;;;;5.07;4.38;;;18.90;97.20;;;;;;1707762;29;20518;-73
2022/10/18 08:22:40;;;;;;;4.72;3.88;;;19.00;97.20;;;;;;1707811;29;20257;-72
2022/10/18 08:23:31;;;;;;;5.47;4.47;;;19.00;97.20;;;;;;1707819;29;20214;-73
2022/10/18 08:24:23;;;;;;;4.45;4.05;;;19.00;97.20;;;;;;1707601;29;20216;-73
2022/10/18 08:25:14;;;;;;;8.90;4.00;;;19.00;97.20;;;;;;1707799;29;20213;-73
2022/10/18 08:26:08;;;;;;;5.18;4.43;;;19.00;97.20;;;;;;1707705;29;20216;-74
2022/10/18 08:26:59;;;;;;;6.68;5.03;;;19.00;97.20;;;;;;1707541;29;20277;-74
2022/10/18 08:27:50;;;;;;;5.13;4.20;;;19.00;97.20;;;;;;1707705;29;20258;-73
2022/10/18 08:28:41;;;;;;;7.20;4.20;;;19.10;97.20;;;;;;1707766;29;20202;-74
2022/10/18 08:29:33;;;;;;;4.50;4.10;;;19.10;97.20;;;;;;1707777;29;20708;-73
2022/10/18 08:30:24;;;;;;;5.03;4.18;;;19.10;97.20;;;;;;1706969;29;20218;-73
2022/10/18 08:31:17;;;;;;;7.47;3.63;;;19.10;97.20;;;;;;1707321;29;20213;-73
2022/10/18 08:32:08;;;;;;;4.20;3.80;;;19.10;97.20;;;;;;1707787;28;20215;-73
2022/10/18 08:33:00;;;;;;;5.33;4.10;;;19.10;97.20;;;;;;1707731;28;20211;-74
2022/10/18 08:33:51;;;;;;;5.65;3.67;;;19.10;97.20;;;;;;1707696;28;20202;-73
2022/10/18 08:34:42;;;;;;;4.63;4.20;;;19.10;97.20;;;;;;1707731;28;20202;-73
2022/10/18 08:35:33;;;;;;;9.85;4.45;;;19.10;97.20;;;;;;1707759;28;20570;-73
2022/10/18 08:36:25;;;;;;;8.57;4.57;;;19.10;97.20;;;;;;1707182;28;20598;-73
2022/10/18 08:37:17;;;;;;;7.20;4.15;;;19.20;97.20;;;;;;1707454;28;20477;-73
2022/10/18 08:38:11;;;;;;;8.30;4.70;;;19.20;97.20;;;;;;1707630;28;20239;-74
2022/10/18 08:39:03;;;;;;;4.35;3.95;;;19.20;97.20;;;;;;1707694;28;20338;-74
2022/10/18 08:39:53;;;;;;;5.03;4.00;;;19.20;97.20;;;;;;1707698;28;20203;-73
2022/10/18 08:40:46;;;;;;;5.40;4.10;;;19.30;97.20;;;;;;1705259;28;20230;-73
2022/10/18 08:41:53;;;;;;;4.38;3.80;;;19.30;97.20;;;;;;1701186;29;20701;-73
2022/10/18 08:43:03;;;;;;;7.28;3.80;;;19.40;97.20;;;;;;1701065;29;20278;-74
2022/10/18 08:44:03;;;;;;;5.05;3.85;;;19.40;97.20;;;;;;1701236;29;20203;-74
2022/10/18 08:44:56;;;;;;;4.30;3.90;;;19.50;97.20;;;;;;1701111;29;20207;-73
2022/10/18 08:45:49;;;;;;;5.70;4.03;;;19.50;97.20;;;;;;1701015;29;20203;-73
2022/10/18 08:46:46;;;;;;;4.88;3.65;;;19.60;97.20;;;;;;1700230;29;20207;-73
2022/10/18 08:47:41;;;;;;;5.28;4.72;;;19.60;97.20;;;;;;1701049;29;20204;-73
2022/10/18 08:48:38;;;;;;;6.32;3.85;;;19.70;97.20;;;;;;1701195;29;20231;-75
2022/10/18 08:49:34;;;;;;;3.63;3.30;;;19.80;97.20;;;;;;1701084;29;20212;-73
2022/10/18 08:50:33;;;;;;;5.40;4.28;;;19.90;97.20;;;;;;1700962;29;20231;-73
2022/10/18 08:51:32;;;;;;;8.07;4.50;;;19.90;97.20;;;;;;1694535;29;20267;-73
2022/10/18 08:52:33;;;;;;;3.90;3.60;;;20.00;97.20;;;;;;1694617;29;20237;-72
2022/10/18 08:53:31;;;;;;;6.43;3.58;;;20.00;97.20;;;;;;1694496;29;20218;-73
2022/10/18 08:54:29;;;;;;;12.82;4.15;;;20.00;97.20;;;;;;1694502;29;20685;-73
2022/10/18 08:55:26;;;;;;;5.95;3.50;;;20.10;97.20;;;;;;1694498;29;20212;-73
2022/10/18 08:56:22;;;;;;;4.15;3.45;;;20.10;97.20;;;;;;1694009;29;20216;-73
2022/10/18 08:57:17;;;;;;;4.05;3.65;;;20.20;97.20;;;;;;1694304;29;20722;-74
2022/10/18 08:58:16;;;;;;;4.15;3.58;;;20.30;97.20;;;;;;1694275;29;20215;-73
2022/10/18 08:59:11;;;;;;;4.80;3.78;;;20.40;97.20;;;;;;1694413;29;20204;-73
2022/10/18 09:00:06;;;;;;;5.70;3.72;;;20.50;97.20;;;;;;1694529;29;20203;-73
2022/10/18 09:01:07;;;;;;;7.10;4.25;;;20.60;97.20;;;;;;1701390;29;20616;-73
2022/10/18 09:02:09;;;;;;;9.98;4.38;;;20.70;97.20;;;;;;1707678;28;20218;-74
2022/10/18 09:03:21;;;;;;;7.13;3.97;;;20.80;97.20;;;;;;1707599;28;20198;-73
2022/10/18 09:04:27;;;;;;;5.07;3.65;;;20.80;97.20;;;;;;1707629;28;20218;-74
2022/10/18 09:05:25;;;;;;;4.00;3.70;;;20.80;97.20;;;;;;1707492;28;20215;-77
2022/10/18 09:06:22;;;;;;;7.32;4.00;;;20.90;97.20;;;;;;1706985;28;20211;-73
2022/10/18 09:07:36;;;;;;;4.30;3.80;;;20.90;97.20;;;;;;1707056;29;20206;-73
2022/10/18 09:08:47;;;;;;;7.50;3.92;;;20.90;97.20;;;;;;1706416;29;20206;-73
2022/10/18 09:09:43;;;;;;;4.45;3.63;;;20.90;97.20;;;;;;1707704;28;20207;-74
2022/10/18 09:10:44;;;;;;;3.97;3.60;;;20.90;97.20;;;;;;1706870;28;20234;-75
2022/10/18 09:11:47;;;;;;;5.50;3.70;;;20.90;97.20;;;;;;1700963;29;20208;-75
2022/10/18 09:13:02;;;;;;;4.30;3.90;;;20.80;97.20;;;;;;1700971;29;20231;-75
2022/10/18 09:14:19;;;;;;;6.63;4.13;;;20.80;97.20;;;;;;1700974;29;20207;-74
2022/10/18 09:15:16;;;;;;;6.63;4.22;;;20.70;97.20;;;;;;1700945;29;20207;-74
2022/10/18 09:16:13;;;;;;;6.75;3.40;;;20.70;97.20;;;;;;1700909;29;20218;-74
2022/10/18 09:17:10;;;;;;;5.65;3.75;;;20.70;97.20;;;;;;1700650;29;20211;-73
2022/10/18 09:18:11;;;;;;;5.70;3.72;;;20.70;97.20;;;;;;1700846;29;20207;-76
2022/10/18 09:19:12;;;;;;;4.88;4.13;;;20.70;97.20;;;;;;1700877;29;20214;-75
2022/10/18 09:20:18;;;;;;;6.35;4.20;;;20.70;97.20;;;;;;1700871;29;20211;-75
2022/10/18 09:21:21;;;;;;;4.25;3.85;;;20.80;97.20;;;;;;1705207;29;20715;-75
2022/10/18 09:22:14;;;;;;;8.30;3.97;;;20.90;97.20;;;;;;1707419;28;20207;-75
2022/10/18 09:23:17;;;;;;;4.00;3.60;;;21.00;97.20;;;;;;1707429;28;20281;-76
2022/10/18 09:24:12;;;;;;;5.57;4.35;;;21.10;97.20;;;;;;1707377;28;20206;-75
2022/10/18 09:25:13;;;;;;;5.15;3.80;;;21.20;97.20;;;;;;1707464;28;20214;-75
2022/10/18 09:26:13;;;;;;;6.03;3.88;;;21.30;97.20;;;;;;1707376;28;20661;-76
2022/10/18 09:27:13;;;;;;;4.40;3.80;;;21.40;97.20;;;;;;1707113;28;20207;-75
2022/10/18 09:28:15;;;;;;;8.15;3.78;;;21.60;97.20;;;;;;1707257;28;20210;-73
2022/10/18 09:29:20;;;;;;;4.20;3.80;;;21.70;97.20;;;;;;1707413;28;20716;-73
2022/10/18 09:30:19;;;;;;;7.45;3.70;;;21.80;97.20;;;;;;1707293;28;20222;-73
2022/10/18 09:31:19;;;;;;;6.03;4.30;;;22.00;97.20;;;;;;1702435;28;20214;-74
2022/10/18 09:32:22;;;;;;;4.32;3.92;;;22.10;97.20;;;;;;1700776;29;20626;-73
2022/10/18 09:33:40;;;;;;;6.95;4.07;;;22.20;97.20;;;;;;1700933;29;20207;-73
2022/10/18 09:34:36;;;;;;;5.00;3.55;;;22.30;97.20;;;;;;1700334;29;20584;-73
2022/10/18 09:35:33;;;;;;;6.15;3.55;;;22.50;97.20;;;;;;1700720;29;20243;-73
2022/10/18 09:36:29;;;;;;;6.50;3.95;;;22.50;97.20;;;;;;1700147;29;20223;-74